createdAt,value
2017-10-11T00:00:15.685Z,1008.69
2017-10-11T00:00:56.267Z,1008.68
2017-10-11T00:01:36.828Z,1008.7
2017-10-11T00:02:17.398Z,1008.66
2017-10-11T00:02:57.963Z,1008.67
2017-10-11T00:03:38.560Z,1008.7
2017-10-11T00:04:19.121Z,1008.69
2017-10-11T00:04:59.689Z,1008.68
2017-10-11T00:05:40.252Z,1008.75
2017-10-11T00:06:20.825Z,1008.66
2017-10-11T00:07:01.399Z,1008.68
2017-10-11T00:07:41.962Z,1008.69
2017-10-11T00:08:22.537Z,1008.73
2017-10-11T00:09:03.121Z,1008.66
2017-10-11T00:09:43.710Z,1008.68
2017-10-11T00:10:24.279Z,1008.67
2017-10-11T00:11:04.841Z,1008.64
2017-10-11T00:11:45.420Z,1008.63
2017-10-11T00:12:25.975Z,1008.67
2017-10-11T00:13:06.546Z,1008.66
2017-10-11T00:13:47.116Z,1008.67
2017-10-11T00:14:27.669Z,1008.66
2017-10-11T00:15:08.237Z,1008.62
2017-10-11T00:15:48.794Z,1008.65
2017-10-11T00:16:29.367Z,1008.68
2017-10-11T00:17:09.930Z,1008.62
2017-10-11T00:17:50.525Z,1008.62
2017-10-11T00:18:31.080Z,1008.64
2017-10-11T00:19:11.636Z,1008.65
2017-10-11T00:19:52.200Z,1008.66
2017-10-11T00:20:32.769Z,1008.63
2017-10-11T00:21:13.340Z,1008.6
2017-10-11T00:21:53.885Z,1008.65
2017-10-11T00:22:34.445Z,1008.68
2017-10-11T00:23:15.020Z,1008.66
2017-10-11T00:23:55.584Z,1008.63
2017-10-11T00:24:36.148Z,1008.63
2017-10-11T00:25:16.716Z,1008.65
2017-10-11T00:25:57.291Z,1008.59
2017-10-11T00:26:37.862Z,1008.63
2017-10-11T00:27:18.423Z,1008.6
2017-10-11T00:27:58.988Z,1008.67
2017-10-11T00:28:39.548Z,1008.63
2017-10-11T00:29:20.153Z,1008.62
2017-10-11T00:30:00.708Z,1008.63
2017-10-11T00:30:41.274Z,1008.65
2017-10-11T00:31:21.832Z,1008.64
2017-10-11T00:32:02.406Z,1008.62
2017-10-11T00:32:42.983Z,1008.57
2017-10-11T00:33:23.551Z,1008.64
2017-10-11T00:34:04.123Z,1008.6
2017-10-11T00:34:44.697Z,1008.57
2017-10-11T00:35:25.272Z,1008.63
2017-10-11T00:36:05.827Z,1008.61
2017-10-11T00:36:46.399Z,1008.57
2017-10-11T00:37:26.954Z,1008.62
2017-10-11T00:38:07.517Z,1008.65
2017-10-11T00:38:48.076Z,1008.72
2017-10-11T00:39:28.634Z,1008.68
2017-10-11T00:40:09.202Z,1008.68
2017-10-11T00:40:49.750Z,1008.68
2017-10-11T00:41:30.317Z,1008.68
2017-10-11T00:42:10.880Z,1008.68
2017-10-11T00:42:51.447Z,1008.67
2017-10-11T00:43:32.035Z,1008.63
2017-10-11T00:44:12.570Z,1008.57
2017-10-11T00:44:53.140Z,1008.6
2017-10-11T00:45:33.707Z,1008.57
2017-10-11T00:46:14.272Z,1008.6
2017-10-11T00:46:54.847Z,1008.58
2017-10-11T00:47:35.411Z,1008.55
2017-10-11T00:48:16.017Z,1008.56
2017-10-11T00:48:56.601Z,1008.62
2017-10-11T00:49:37.178Z,1008.63
2017-10-11T00:50:20.615Z,1008.65
2017-10-11T00:51:01.182Z,1008.63
2017-10-11T00:51:41.746Z,1008.61
2017-10-11T00:52:22.329Z,1008.59
2017-10-11T00:53:02.900Z,1008.63
2017-10-11T00:53:43.470Z,1008.64
2017-10-11T00:54:24.028Z,1008.67
2017-10-11T00:55:04.596Z,1008.64
2017-10-11T00:55:45.178Z,1008.64
2017-10-11T00:56:25.746Z,1008.62
2017-10-11T00:57:06.311Z,1008.61
2017-10-11T00:57:46.873Z,1008.63
2017-10-11T00:58:27.442Z,1008.64
2017-10-11T00:59:08.001Z,1008.7
2017-10-11T00:59:48.567Z,1008.65
2017-10-11T01:00:29.124Z,1008.63
2017-10-11T01:01:09.697Z,1008.7
2017-10-11T01:01:50.260Z,1008.66
2017-10-11T01:02:30.833Z,1008.66
2017-10-11T01:03:11.398Z,1008.67
2017-10-11T01:03:51.955Z,1008.68
2017-10-11T01:04:32.524Z,1008.66
2017-10-11T01:05:13.087Z,1008.64
2017-10-11T01:05:53.674Z,1008.64
2017-10-11T01:06:34.237Z,1008.64
2017-10-11T01:07:14.810Z,1008.64
2017-10-11T01:07:55.374Z,1008.67
2017-10-11T01:08:35.938Z,1008.61
2017-10-11T01:09:16.500Z,1008.62
2017-10-11T01:09:57.079Z,1008.65
2017-10-11T01:10:37.646Z,1008.65
2017-10-11T01:11:18.216Z,1008.65
2017-10-11T01:11:58.780Z,1008.63
2017-10-11T01:12:39.346Z,1008.66
2017-10-11T01:13:19.905Z,1008.62
2017-10-11T01:14:00.466Z,1008.63
2017-10-11T01:14:41.028Z,1008.6
2017-10-11T01:15:21.602Z,1008.61
2017-10-11T01:16:02.159Z,1008.64
2017-10-11T01:16:42.733Z,1008.63
2017-10-11T01:17:23.295Z,1008.62
2017-10-11T01:18:03.855Z,1008.62
2017-10-11T01:18:44.428Z,1008.61
2017-10-11T01:19:24.992Z,1008.63
2017-10-11T01:20:05.602Z,1008.61
2017-10-11T01:20:46.176Z,1008.63
2017-10-11T01:21:26.767Z,1008.6
2017-10-11T01:22:07.326Z,1008.62
2017-10-11T01:22:47.890Z,1008.58
2017-10-11T01:23:28.460Z,1008.61
2017-10-11T01:24:09.016Z,1008.64
2017-10-11T01:24:49.576Z,1008.64
2017-10-11T01:25:30.134Z,1008.7
2017-10-11T01:26:10.699Z,1008.63
2017-10-11T01:26:51.257Z,1008.66
2017-10-11T01:27:31.819Z,1008.63
2017-10-11T01:28:12.385Z,1008.69
2017-10-11T01:28:52.954Z,1008.7
2017-10-11T01:29:33.517Z,1008.69
2017-10-11T01:30:14.108Z,1008.66
2017-10-11T01:30:54.680Z,1008.66
2017-10-11T01:31:35.245Z,1008.67
2017-10-11T01:32:15.801Z,1008.66
2017-10-11T01:32:56.375Z,1008.72
2017-10-11T01:33:36.947Z,1008.69
2017-10-11T01:34:17.525Z,1008.66
2017-10-11T01:34:58.074Z,1008.7
2017-10-11T01:35:38.647Z,1008.74
2017-10-11T01:36:19.219Z,1008.7
2017-10-11T01:36:59.784Z,1008.68
2017-10-11T01:37:40.345Z,1008.67
2017-10-11T01:38:20.919Z,1008.68
2017-10-11T01:39:01.486Z,1008.66
2017-10-11T01:39:42.052Z,1008.64
2017-10-11T01:40:22.609Z,1008.69
2017-10-11T01:41:03.186Z,1008.7
2017-10-11T01:41:43.742Z,1008.69
2017-10-11T01:42:24.304Z,1008.67
2017-10-11T01:43:04.878Z,1008.68
2017-10-11T01:43:45.440Z,1008.7
2017-10-11T01:44:26.003Z,1008.65
2017-10-11T01:45:06.577Z,1008.69
2017-10-11T01:45:47.141Z,1008.7
2017-10-11T01:46:27.711Z,1008.71
2017-10-11T01:47:08.274Z,1008.74
2017-10-11T01:47:48.840Z,1008.71
2017-10-11T01:48:29.406Z,1008.73
2017-10-11T01:49:09.968Z,1008.71
2017-10-11T01:49:50.530Z,1008.69
2017-10-11T01:50:31.098Z,1008.67
2017-10-11T01:51:11.656Z,1008.74
2017-10-11T01:51:52.253Z,1008.73
2017-10-11T01:52:32.848Z,1008.69
2017-10-11T01:53:13.416Z,1008.74
2017-10-11T01:53:54.000Z,1008.6
2017-10-11T01:54:34.565Z,1008.67
2017-10-11T01:55:15.130Z,1008.69
2017-10-11T01:55:55.690Z,1008.73
2017-10-11T01:56:36.257Z,1008.65
2017-10-11T01:57:16.854Z,1008.64
2017-10-11T01:57:57.418Z,1008.65
2017-10-11T01:58:37.982Z,1008.62
2017-10-11T01:59:18.545Z,1008.59
2017-10-11T01:59:59.124Z,1008.61
2017-10-11T02:00:39.693Z,1008.61
2017-10-11T02:01:20.266Z,1008.6
2017-10-11T02:02:00.833Z,1008.6
2017-10-11T02:02:41.383Z,1008.61
2017-10-11T02:03:21.940Z,1008.63
2017-10-11T02:04:02.502Z,1008.65
2017-10-11T02:04:43.074Z,1008.65
2017-10-11T02:05:23.641Z,1008.66
2017-10-11T02:06:04.219Z,1008.73
2017-10-11T02:06:44.783Z,1008.66
2017-10-11T02:07:25.345Z,1008.66
2017-10-11T02:08:05.921Z,1008.7
2017-10-11T02:08:46.479Z,1008.65
2017-10-11T02:09:27.050Z,1008.63
2017-10-11T02:10:08.238Z,1008.67
2017-10-11T02:10:48.794Z,1008.66
2017-10-11T02:11:29.355Z,1008.67
2017-10-11T02:12:09.919Z,1008.65
2017-10-11T02:12:50.484Z,1008.66
2017-10-11T02:13:31.062Z,1008.63
2017-10-11T02:14:11.622Z,1008.68
2017-10-11T02:14:52.215Z,1008.64
2017-10-11T02:15:32.786Z,1008.63
2017-10-11T02:16:13.366Z,1008.6
2017-10-11T02:16:53.928Z,1008.67
2017-10-11T02:17:34.520Z,1008.64
2017-10-11T02:18:15.085Z,1008.58
2017-10-11T02:18:57.637Z,1008.65
2017-10-11T02:19:38.213Z,1008.66
2017-10-11T02:20:21.635Z,1008.65
2017-10-11T02:21:02.209Z,1008.66
2017-10-11T02:21:42.783Z,1008.67
2017-10-11T02:22:23.353Z,1008.67
2017-10-11T02:23:03.923Z,1008.68
2017-10-11T02:23:44.497Z,1008.68
2017-10-11T02:24:25.085Z,1008.7
2017-10-11T02:25:05.654Z,1008.68
2017-10-11T02:25:46.221Z,1008.68
2017-10-11T02:26:26.787Z,1008.65
2017-10-11T02:27:07.349Z,1008.65
2017-10-11T02:27:47.917Z,1008.63
2017-10-11T02:28:28.494Z,1008.68
2017-10-11T02:29:09.065Z,1008.7
2017-10-11T02:29:49.632Z,1008.69
2017-10-11T02:30:30.194Z,1008.76
2017-10-11T02:31:10.781Z,1008.72
2017-10-11T02:31:51.352Z,1008.69
2017-10-11T02:32:31.916Z,1008.71
2017-10-11T02:33:12.490Z,1008.67
2017-10-11T02:33:53.058Z,1008.69
2017-10-11T02:34:33.631Z,1008.69
2017-10-11T02:35:14.222Z,1008.69
2017-10-11T02:35:54.798Z,1008.71
2017-10-11T02:36:35.377Z,1008.69
2017-10-11T02:37:15.958Z,1008.6
2017-10-11T02:37:56.516Z,1008.66
2017-10-11T02:38:37.083Z,1008.62
2017-10-11T02:39:17.655Z,1008.68
2017-10-11T02:39:58.222Z,1008.64
2017-10-11T02:40:38.783Z,1008.67
2017-10-11T02:41:19.355Z,1008.68
2017-10-11T02:41:59.918Z,1008.64
2017-10-11T02:42:40.483Z,1008.66
2017-10-11T02:43:21.052Z,1008.67
2017-10-11T02:44:01.617Z,1008.67
2017-10-11T02:44:42.187Z,1008.7
2017-10-11T02:45:22.755Z,1008.69
2017-10-11T02:46:03.351Z,1008.68
2017-10-11T02:46:54.775Z,1008.65
2017-10-11T02:48:52.471Z,1008.63
2017-10-11T02:49:33.042Z,1008.66
2017-10-11T02:52:00.640Z,1008.64
2017-10-11T02:52:42.968Z,1008.65
2017-10-11T02:53:23.542Z,1008.63
2017-10-11T02:54:04.109Z,1008.63
2017-10-11T02:54:44.668Z,1008.64
2017-10-11T02:55:25.222Z,1008.64
2017-10-11T02:56:05.786Z,1008.65
2017-10-11T02:56:46.350Z,1008.63
2017-10-11T02:57:26.942Z,1008.66
2017-10-11T02:58:09.213Z,1008.66
2017-10-11T02:58:49.813Z,1008.63
2017-10-11T02:59:30.375Z,1008.55
2017-10-11T03:00:18.716Z,1008.61
2017-10-11T03:00:59.274Z,1008.63
2017-10-11T03:01:39.844Z,1008.62
2017-10-11T03:02:20.421Z,1008.62
2017-10-11T03:03:00.990Z,1008.63
2017-10-11T03:03:49.709Z,1008.67
2017-10-11T03:04:39.865Z,1008.65
2017-10-11T03:05:20.430Z,1008.67
2017-10-11T03:06:05.676Z,1008.64
2017-10-11T03:06:50.854Z,1008.66
2017-10-11T03:07:34.190Z,1008.65
2017-10-11T03:08:14.750Z,1008.62
2017-10-11T03:08:58.079Z,1008.61
2017-10-11T03:09:38.646Z,1008.61
2017-10-11T03:10:19.200Z,1008.59
2017-10-11T03:10:59.772Z,1008.6
2017-10-11T03:11:41.217Z,1008.67
2017-10-11T03:12:21.789Z,1008.65
2017-10-11T03:13:02.353Z,1008.63
2017-10-11T03:13:45.597Z,1008.64
2017-10-11T03:14:26.172Z,1008.63
2017-10-11T03:15:06.730Z,1008.61
2017-10-11T03:15:47.295Z,1008.69
2017-10-11T03:16:27.869Z,1008.6
2017-10-11T03:17:15.865Z,1008.64
2017-10-11T03:17:56.432Z,1008.65
2017-10-11T03:18:36.998Z,1008.66
2017-10-11T03:19:17.565Z,1008.69
2017-10-11T03:19:58.128Z,1008.59
2017-10-11T03:20:38.688Z,1008.62
2017-10-11T03:21:23.964Z,1008.58
2017-10-11T03:22:04.527Z,1008.58
2017-10-11T03:22:45.115Z,1008.57
2017-10-11T03:23:25.711Z,1008.54
2017-10-11T03:24:07.078Z,1008.55
2017-10-11T03:24:50.597Z,1008.6
2017-10-11T03:25:31.205Z,1008.59
2017-10-11T03:26:11.810Z,1008.6
2017-10-11T03:26:52.374Z,1008.6
2017-10-11T03:27:33.863Z,1008.6
2017-10-11T03:28:19.216Z,1008.6
2017-10-11T03:29:00.410Z,1008.6
2017-10-11T03:29:40.973Z,1008.61
2017-10-11T03:30:24.872Z,1008.6
2017-10-11T03:31:07.363Z,1008.58
2017-10-11T03:31:47.925Z,1008.62
2017-10-11T03:32:28.485Z,1008.64
2017-10-11T03:33:09.043Z,1008.64
2017-10-11T03:33:49.600Z,1008.61
2017-10-11T03:34:30.186Z,1008.56
2017-10-11T03:35:10.792Z,1008.56
2017-10-11T03:35:51.331Z,1008.57
2017-10-11T03:36:31.889Z,1008.56
2017-10-11T03:37:12.455Z,1008.6
2017-10-11T03:37:53.026Z,1008.63
2017-10-11T03:38:33.590Z,1008.63
2017-10-11T03:39:14.150Z,1008.62
2017-10-11T03:39:54.712Z,1008.61
2017-10-11T03:40:35.292Z,1008.57
2017-10-11T03:41:15.881Z,1008.6
2017-10-11T03:41:58.981Z,1008.63
2017-10-11T03:42:39.540Z,1008.63
2017-10-11T03:43:20.101Z,1008.61
2017-10-11T03:44:02.724Z,1008.57
2017-10-11T03:44:44.220Z,1008.56
2017-10-11T03:45:24.809Z,1008.57
2017-10-11T03:46:05.388Z,1008.53
2017-10-11T03:46:45.940Z,1008.57
2017-10-11T03:47:28.474Z,1008.56
2017-10-11T03:48:09.063Z,1008.57
2017-10-11T03:48:50.375Z,1008.59
2017-10-11T03:49:30.937Z,1008.6
2017-10-11T03:50:11.526Z,1008.56
2017-10-11T03:50:52.081Z,1008.56
2017-10-11T03:51:35.223Z,1008.6
2017-10-11T03:52:15.793Z,1008.53
2017-10-11T03:52:58.220Z,1008.58
2017-10-11T03:53:38.796Z,1008.59
2017-10-11T03:54:19.366Z,1008.59
2017-10-11T03:55:02.507Z,1008.56
2017-10-11T03:55:47.371Z,1008.54
2017-10-11T03:56:27.949Z,1008.56
2017-10-11T03:57:08.502Z,1008.55
2017-10-11T03:57:49.086Z,1008.55
2017-10-11T03:58:29.663Z,1008.55
2017-10-11T03:59:10.252Z,1008.56
2017-10-11T03:59:50.819Z,1008.55
2017-10-11T04:00:31.368Z,1008.57
2017-10-11T04:01:11.938Z,1008.57
2017-10-11T04:01:52.500Z,1008.53
2017-10-11T04:02:37.727Z,1008.59
2017-10-11T04:03:23.193Z,1008.49
2017-10-11T04:04:03.750Z,1008.54
2017-10-11T04:04:47.189Z,1008.54
2017-10-11T04:05:29.383Z,1008.58
2017-10-11T04:06:09.938Z,1008.6
2017-10-11T04:06:52.365Z,1008.59
2017-10-11T04:07:32.929Z,1008.59
2017-10-11T04:08:13.494Z,1008.59
2017-10-11T04:08:54.066Z,1008.55
2017-10-11T04:09:34.628Z,1008.59
2017-10-11T04:10:17.883Z,1008.57
2017-10-11T04:10:58.451Z,1008.58
2017-10-11T04:11:39.036Z,1008.57
2017-10-11T04:12:20.598Z,1008.56
2017-10-11T04:13:01.735Z,1008.59
2017-10-11T04:13:42.330Z,1008.58
2017-10-11T04:14:23.875Z,1008.57
2017-10-11T04:15:04.435Z,1008.62
2017-10-11T04:15:44.998Z,1008.63
2017-10-11T04:16:25.562Z,1008.59
2017-10-11T04:17:09.487Z,1008.56
2017-10-11T04:17:50.043Z,1008.56
2017-10-11T04:18:30.600Z,1008.65
2017-10-11T04:19:11.176Z,1008.59
2017-10-11T04:19:53.456Z,1008.57
2017-10-11T04:20:34.875Z,1008.62
2017-10-11T04:21:15.438Z,1008.59
2017-10-11T04:21:55.991Z,1008.6
2017-10-11T04:22:36.584Z,1008.59
2017-10-11T04:23:17.153Z,1008.62
2017-10-11T04:23:57.717Z,1008.66
2017-10-11T04:24:38.276Z,1008.55
2017-10-11T04:25:18.849Z,1008.6
2017-10-11T04:25:59.420Z,1008.59
2017-10-11T04:26:39.983Z,1008.6
2017-10-11T04:27:20.562Z,1008.63
2017-10-11T04:28:01.133Z,1008.59
2017-10-11T04:28:41.697Z,1008.59
2017-10-11T04:29:22.274Z,1008.61
2017-10-11T04:30:02.850Z,1008.58
2017-10-11T04:30:43.413Z,1008.57
2017-10-11T04:31:23.991Z,1008.56
2017-10-11T04:32:04.545Z,1008.57
2017-10-11T04:32:45.105Z,1008.55
2017-10-11T04:33:25.690Z,1008.58
2017-10-11T04:34:06.265Z,1008.58
2017-10-11T04:34:46.833Z,1008.6
2017-10-11T04:35:27.396Z,1008.58
2017-10-11T04:36:07.963Z,1008.56
2017-10-11T04:36:48.531Z,1008.58
2017-10-11T04:37:29.097Z,1008.54
2017-10-11T04:38:09.661Z,1008.57
2017-10-11T04:38:50.222Z,1008.55
2017-10-11T04:39:30.795Z,1008.54
2017-10-11T04:40:11.371Z,1008.56
2017-10-11T04:40:51.933Z,1008.55
2017-10-11T04:41:32.492Z,1008.51
2017-10-11T04:42:13.060Z,1008.52
2017-10-11T04:42:53.619Z,1008.54
2017-10-11T04:43:34.180Z,1008.53
2017-10-11T04:44:14.796Z,1008.54
2017-10-11T04:44:55.367Z,1008.53
2017-10-11T04:45:35.977Z,1008.54
2017-10-11T04:46:16.543Z,1008.51
2017-10-11T04:46:57.105Z,1008.55
2017-10-11T04:47:37.683Z,1008.55
2017-10-11T04:48:18.250Z,1008.55
2017-10-11T04:48:59.650Z,1008.53
2017-10-11T04:49:40.205Z,1008.55
2017-10-11T04:50:20.757Z,1008.52
2017-10-11T04:51:01.393Z,1008.56
2017-10-11T04:51:41.988Z,1008.55
2017-10-11T04:52:22.556Z,1008.56
2017-10-11T04:53:03.659Z,1008.56
2017-10-11T04:53:45.430Z,1008.58
2017-10-11T04:54:27.063Z,1008.6
2017-10-11T04:55:08.153Z,1008.62
2017-10-11T04:55:48.709Z,1008.6
2017-10-11T04:56:29.294Z,1008.6
2017-10-11T04:57:10.056Z,1008.56
2017-10-11T04:57:50.631Z,1008.6
2017-10-11T04:58:31.178Z,1008.56
2017-10-11T04:59:11.745Z,1008.57
2017-10-11T04:59:52.301Z,1008.6
2017-10-11T05:00:32.879Z,1008.59
2017-10-11T05:01:13.462Z,1008.59
2017-10-11T05:01:54.043Z,1008.62
2017-10-11T05:02:34.609Z,1008.62
2017-10-11T05:03:15.176Z,1008.64
2017-10-11T05:03:55.839Z,1008.62
2017-10-11T05:04:36.430Z,1008.61
2017-10-11T05:05:16.999Z,1008.61
2017-10-11T05:05:57.567Z,1008.6
2017-10-11T05:06:38.136Z,1008.55
2017-10-11T05:07:18.708Z,1008.63
2017-10-11T05:07:59.266Z,1008.63
2017-10-11T05:08:39.830Z,1008.64
2017-10-11T05:09:20.388Z,1008.61
2017-10-11T05:10:00.965Z,1008.6
2017-10-11T05:10:41.526Z,1008.63
2017-10-11T05:11:22.089Z,1008.64
2017-10-11T05:12:02.650Z,1008.63
2017-10-11T05:12:45.064Z,1008.66
2017-10-11T05:13:26.310Z,1008.65
2017-10-11T05:14:06.865Z,1008.64
2017-10-11T05:14:47.440Z,1008.64
2017-10-11T05:15:28.017Z,1008.65
2017-10-11T05:16:08.580Z,1008.67
2017-10-11T05:16:49.131Z,1008.65
2017-10-11T05:17:29.694Z,1008.67
2017-10-11T05:18:10.269Z,1008.64
2017-10-11T05:18:50.824Z,1008.66
2017-10-11T05:19:31.390Z,1008.66
2017-10-11T05:20:11.955Z,1008.65
2017-10-11T05:20:52.505Z,1008.68
2017-10-11T05:21:34.742Z,1008.66
2017-10-11T05:22:15.296Z,1008.67
2017-10-11T05:22:56.199Z,1008.66
2017-10-11T05:23:37.670Z,1008.68
2017-10-11T05:24:18.246Z,1008.65
2017-10-11T05:24:58.810Z,1008.7
2017-10-11T05:25:39.402Z,1008.7
2017-10-11T05:26:19.972Z,1008.65
2017-10-11T05:27:00.535Z,1008.68
2017-10-11T05:27:41.102Z,1008.66
2017-10-11T05:28:21.668Z,1008.65
2017-10-11T05:29:02.239Z,1008.61
2017-10-11T05:29:42.807Z,1008.68
2017-10-11T05:30:23.364Z,1008.69
2017-10-11T05:31:03.943Z,1008.69
2017-10-11T05:31:44.519Z,1008.7
2017-10-11T05:32:25.084Z,1008.73
2017-10-11T05:33:05.657Z,1008.73
2017-10-11T05:33:46.236Z,1008.74
2017-10-11T05:34:26.828Z,1008.74
2017-10-11T05:35:07.413Z,1008.76
2017-10-11T05:35:47.996Z,1008.77
2017-10-11T05:36:28.574Z,1008.83
2017-10-11T05:37:09.136Z,1008.82
2017-10-11T05:37:49.707Z,1008.77
2017-10-11T05:38:30.294Z,1008.79
2017-10-11T05:39:10.868Z,1008.77
2017-10-11T05:39:51.444Z,1008.71
2017-10-11T05:40:32.009Z,1008.72
2017-10-11T05:41:12.659Z,1008.71
2017-10-11T05:41:53.384Z,1008.7
2017-10-11T05:42:33.948Z,1008.7
2017-10-11T05:43:14.974Z,1008.77
2017-10-11T05:43:55.549Z,1008.73
2017-10-11T05:44:36.127Z,1008.72
2017-10-11T05:45:16.703Z,1008.8
2017-10-11T05:45:57.309Z,1008.8
2017-10-11T05:46:37.876Z,1008.77
2017-10-11T05:47:18.436Z,1008.78
2017-10-11T05:47:59.040Z,1008.75
2017-10-11T05:48:39.615Z,1008.77
2017-10-11T05:49:20.187Z,1008.8
2017-10-11T05:50:00.751Z,1008.76
2017-10-11T05:50:41.375Z,1008.8
2017-10-11T05:51:21.938Z,1008.77
2017-10-11T05:52:02.506Z,1008.76
2017-10-11T05:52:43.074Z,1008.76
2017-10-11T05:53:23.634Z,1008.78
2017-10-11T05:54:04.226Z,1008.81
2017-10-11T05:54:44.791Z,1008.82
2017-10-11T05:55:25.362Z,1008.85
2017-10-11T05:56:05.952Z,1008.8
2017-10-11T05:56:46.497Z,1008.79
2017-10-11T05:57:27.050Z,1008.82
2017-10-11T05:58:07.624Z,1008.82
2017-10-11T05:58:48.191Z,1008.83
2017-10-11T05:59:28.763Z,1008.86
2017-10-11T06:00:09.337Z,1008.83
2017-10-11T06:00:49.915Z,1008.82
2017-10-11T06:01:30.482Z,1008.83
2017-10-11T06:02:11.071Z,1008.85
2017-10-11T06:02:51.647Z,1008.81
2017-10-11T06:03:32.229Z,1008.86
2017-10-11T06:04:12.797Z,1008.82
2017-10-11T06:04:53.362Z,1008.92
2017-10-11T06:05:33.933Z,1008.86
2017-10-11T06:06:14.667Z,1008.93
2017-10-11T06:06:55.459Z,1008.91
2017-10-11T06:07:36.041Z,1008.91
2017-10-11T06:08:16.616Z,1008.86
2017-10-11T06:08:57.178Z,1008.9
2017-10-11T06:09:37.756Z,1008.89
2017-10-11T06:10:18.351Z,1008.86
2017-10-11T06:10:58.921Z,1008.89
2017-10-11T06:11:39.499Z,1008.88
2017-10-11T06:12:20.073Z,1008.94
2017-10-11T06:13:00.674Z,1008.91
2017-10-11T06:13:41.259Z,1008.87
2017-10-11T06:14:21.827Z,1008.9
2017-10-11T06:15:02.392Z,1008.91
2017-10-11T06:15:42.978Z,1008.92
2017-10-11T06:16:23.558Z,1008.92
2017-10-11T06:17:04.137Z,1008.93
2017-10-11T06:17:44.718Z,1008.9
2017-10-11T06:18:25.282Z,1008.93
2017-10-11T06:19:05.843Z,1008.93
2017-10-11T06:19:46.438Z,1008.93
2017-10-11T06:20:27.001Z,1008.94
2017-10-11T06:21:07.566Z,1008.95
2017-10-11T06:21:48.172Z,1008.94
2017-10-11T06:22:28.889Z,1008.95
2017-10-11T06:23:09.464Z,1008.96
2017-10-11T06:23:50.047Z,1008.9
2017-10-11T06:24:30.594Z,1008.91
2017-10-11T06:25:11.239Z,1008.9
2017-10-11T06:25:51.844Z,1008.93
2017-10-11T06:26:32.417Z,1008.93
2017-10-11T06:27:12.990Z,1008.94
2017-10-11T06:27:54.106Z,1008.92
2017-10-11T06:28:34.677Z,1008.94
2017-10-11T06:29:15.284Z,1008.95
2017-10-11T06:29:55.861Z,1008.94
2017-10-11T06:30:36.447Z,1008.92
2017-10-11T06:31:17.019Z,1008.94
2017-10-11T06:31:57.591Z,1008.93
2017-10-11T06:32:38.151Z,1008.93
2017-10-11T06:33:18.710Z,1008.91
2017-10-11T06:33:59.279Z,1008.92
2017-10-11T06:34:39.845Z,1008.93
2017-10-11T06:35:20.414Z,1008.91
2017-10-11T06:36:00.985Z,1008.94
2017-10-11T06:36:41.550Z,1008.97
2017-10-11T06:37:22.126Z,1008.9
2017-10-11T06:38:02.745Z,1008.94
2017-10-11T06:38:43.312Z,1008.93
2017-10-11T06:39:23.894Z,1008.96
2017-10-11T06:40:04.477Z,1008.94
2017-10-11T06:40:45.056Z,1008.92
2017-10-11T06:41:25.653Z,1008.92
2017-10-11T06:42:06.228Z,1008.93
2017-10-11T06:42:46.784Z,1008.93
2017-10-11T06:43:27.362Z,1008.96
2017-10-11T06:44:08.013Z,1008.98
2017-10-11T06:44:48.591Z,1009.02
2017-10-11T06:45:29.172Z,1008.98
2017-10-11T06:46:09.765Z,1008.99
2017-10-11T06:46:51.337Z,1009.03
2017-10-11T06:47:31.899Z,1009.03
2017-10-11T06:48:12.464Z,1009.01
2017-10-11T06:48:53.020Z,1008.99
2017-10-11T06:49:33.629Z,1009.04
2017-10-11T06:50:14.192Z,1009.05
2017-10-11T06:50:54.759Z,1009.08
2017-10-11T06:51:35.333Z,1009.08
2017-10-11T06:52:16.006Z,1009.05
2017-10-11T06:52:56.570Z,1009.07
2017-10-11T06:53:37.146Z,1009.09
2017-10-11T06:54:17.692Z,1009.09
2017-10-11T06:54:58.308Z,1009.11
2017-10-11T06:55:38.863Z,1009.06
2017-10-11T06:56:19.473Z,1009.11
2017-10-11T06:57:00.040Z,1009.08
2017-10-11T06:57:40.607Z,1009.09
2017-10-11T06:58:21.186Z,1009.14
2017-10-11T06:59:01.767Z,1009.16
2017-10-11T06:59:42.359Z,1009.12
2017-10-11T07:00:22.938Z,1009.12
2017-10-11T07:01:03.516Z,1009.13
2017-10-11T07:01:44.141Z,1009.12
2017-10-11T07:02:24.703Z,1009.1
2017-10-11T07:03:05.268Z,1009.11
2017-10-11T07:03:45.832Z,1009.12
2017-10-11T07:04:26.421Z,1009.12
2017-10-11T07:05:07.001Z,1009.13
2017-10-11T07:05:47.568Z,1009.17
2017-10-11T07:06:28.333Z,1009.14
2017-10-11T07:07:08.914Z,1009.16
2017-10-11T07:07:49.490Z,1009.11
2017-10-11T07:08:30.071Z,1009.11
2017-10-11T07:09:10.748Z,1009.13
2017-10-11T07:09:51.401Z,1009.17
2017-10-11T07:10:32.099Z,1009.13
2017-10-11T07:11:12.670Z,1009.13
2017-10-11T07:11:53.235Z,1009.12
2017-10-11T07:12:33.792Z,1009.18
2017-10-11T07:13:14.381Z,1009.16
2017-10-11T07:13:54.978Z,1009.15
2017-10-11T07:14:35.544Z,1009.19
2017-10-11T07:15:16.110Z,1009.14
2017-10-11T07:15:56.672Z,1009.21
2017-10-11T07:16:37.240Z,1009.19
2017-10-11T07:17:17.796Z,1009.17
2017-10-11T07:17:58.357Z,1009.17
2017-10-11T07:18:39.065Z,1009.19
2017-10-11T07:19:19.668Z,1009.17
2017-10-11T07:20:00.239Z,1009.22
2017-10-11T07:20:41.031Z,1009.19
2017-10-11T07:21:21.623Z,1009.17
2017-10-11T07:22:02.214Z,1009.19
2017-10-11T07:22:42.785Z,1009.19
2017-10-11T07:23:23.344Z,1009.23
2017-10-11T07:24:03.909Z,1009.19
2017-10-11T07:24:45.030Z,1009.19
2017-10-11T07:25:25.765Z,1009.14
2017-10-11T07:26:06.473Z,1009.2
2017-10-11T07:26:47.244Z,1009.2
2017-10-11T07:27:27.860Z,1009.16
2017-10-11T07:28:08.432Z,1009.18
2017-10-11T07:28:48.989Z,1009.15
2017-10-11T07:29:29.588Z,1009.19
2017-10-11T07:30:10.175Z,1009.16
2017-10-11T07:30:50.737Z,1009.16
2017-10-11T07:31:31.306Z,1009.14
2017-10-11T07:32:11.895Z,1009.16
2017-10-11T07:32:52.442Z,1009.15
2017-10-11T07:33:33.015Z,1009.18
2017-10-11T07:34:13.573Z,1009.15
2017-10-11T07:34:54.142Z,1009.17
2017-10-11T07:35:34.717Z,1009.15
2017-10-11T07:36:15.281Z,1009.19
2017-10-11T07:36:55.891Z,1009.18
2017-10-11T07:37:36.427Z,1009.17
2017-10-11T07:38:17.000Z,1009.21
2017-10-11T07:38:57.597Z,1009.19
2017-10-11T07:39:38.166Z,1009.19
2017-10-11T07:40:18.731Z,1009.23
2017-10-11T07:40:59.307Z,1009.25
2017-10-11T07:41:39.878Z,1009.29
2017-10-11T07:42:20.450Z,1009.25
2017-10-11T07:43:01.021Z,1009.27
2017-10-11T07:43:41.877Z,1009.28
2017-10-11T07:44:22.449Z,1009.23
2017-10-11T07:45:03.023Z,1009.25
2017-10-11T07:45:43.606Z,1009.26
2017-10-11T07:46:24.183Z,1009.22
2017-10-11T07:47:04.758Z,1009.23
2017-10-11T07:47:45.320Z,1009.22
2017-10-11T07:48:25.894Z,1009.21
2017-10-11T07:49:06.468Z,1009.17
2017-10-11T07:49:47.024Z,1009.18
2017-10-11T07:50:27.602Z,1009.22
2017-10-11T07:51:08.202Z,1009.16
2017-10-11T07:51:48.740Z,1009.18
2017-10-11T07:52:29.298Z,1009.2
2017-10-11T07:53:09.866Z,1009.18
2017-10-11T07:53:50.425Z,1009.2
2017-10-11T07:54:30.996Z,1009.23
2017-10-11T07:55:11.560Z,1009.21
2017-10-11T07:55:52.131Z,1009.21
2017-10-11T07:56:32.690Z,1009.23
2017-10-11T07:57:13.264Z,1009.24
2017-10-11T07:57:53.840Z,1009.24
2017-10-11T07:58:34.417Z,1009.24
2017-10-11T07:59:14.994Z,1009.27
2017-10-11T07:59:55.557Z,1009.26
2017-10-11T08:00:36.110Z,1009.28
2017-10-11T08:01:16.672Z,1009.2
2017-10-11T08:01:57.241Z,1009.29
2017-10-11T08:02:37.812Z,1009.27
2017-10-11T08:03:18.402Z,1009.27
2017-10-11T08:03:58.957Z,1009.22
2017-10-11T08:04:39.529Z,1009.28
2017-10-11T08:05:20.103Z,1009.27
2017-10-11T08:06:00.672Z,1009.28
2017-10-11T08:06:41.232Z,1009.3
2017-10-11T08:07:21.799Z,1009.3
2017-10-11T08:08:02.392Z,1009.28
2017-10-11T08:08:42.998Z,1009.32
2017-10-11T08:09:23.562Z,1009.3
2017-10-11T08:10:04.141Z,1009.29
2017-10-11T08:10:44.693Z,1009.29
2017-10-11T08:11:25.263Z,1009.25
2017-10-11T08:12:05.862Z,1009.32
2017-10-11T08:12:46.427Z,1009.35
2017-10-11T08:13:26.994Z,1009.29
2017-10-11T08:14:07.561Z,1009.31
2017-10-11T08:14:48.147Z,1009.31
2017-10-11T08:15:28.700Z,1009.3
2017-10-11T08:16:09.277Z,1009.35
2017-10-11T08:16:49.830Z,1009.28
2017-10-11T08:17:30.393Z,1009.35
2017-10-11T08:18:10.962Z,1009.35